Time,TemperatureF,DewpointF,PressureIn,WindDirection,WindDirectionDegrees,WindSpeedMPH,WindSpeedGustMPH,Humidity,HourlyPrecipIn,Conditions,Clouds,dailyrainin,SoftwareType,DateUTC
2014-01-17 00:05:00,36.6,21.5,30.02,WSW,240,0.0,0.0,54,0.00,,,0.00,Wunderground v.1.15,2014-01-17 05:05:00,
2014-01-17 00:14:00,36.6,21.1,30.02,WSW,240,0.0,0.0,53,0.00,,,0.00,Wunderground v.1.15,2014-01-17 05:14:00,
2014-01-17 00:19:00,36.5,21.0,30.02,WSW,240,0.0,0.0,53,0.00,,,0.00,Wunderground v.1.15,2014-01-17 05:19:00,
2014-01-17 00:29:00,36.3,20.8,30.01,WSW,240,0.0,0.0,53,0.00,,,0.00,Wunderground v.1.15,2014-01-17 05:29:00,
2014-01-17 00:39:00,36.1,20.6,30.01,WSW,240,0.0,0.0,53,0.00,,,0.00,Wunderground v.1.15,2014-01-17 05:39:00,
2014-01-17 00:50:00,36.0,20.9,30.01,WSW,240,0.0,0.0,54,0.00,,,0.00,Wunderground v.1.15,2014-01-17 05:50:00,
2014-01-17 00:54:00,35.9,20.9,30.01,WSW,240,0.0,0.0,54,0.00,,,0.00,Wunderground v.1.15,2014-01-17 05:54:00,
2014-01-17 01:00:00,35.8,20.8,30.01,WSW,240,0.0,0.0,54,0.00,,,0.00,Wunderground v.1.15,2014-01-17 06:00:00,
2014-01-17 01:05:00,35.7,20.7,30.01,WSW,240,0.0,0.0,54,0.00,,,0.00,Wunderground v.1.15,2014-01-17 06:05:00,
2014-01-17 01:15:00,35.4,20.8,30.01,WSW,240,0.0,0.0,55,0.00,,,0.00,Wunderground v.1.15,2014-01-17 06:15:00,
2014-01-17 01:20:00,35.3,20.7,30.01,WSW,240,0.0,0.0,55,0.00,,,0.00,Wunderground v.1.15,2014-01-17 06:20:00,
2014-01-17 01:25:00,35.1,21.0,30.01,WSW,240,0.0,0.0,56,0.00,,,0.00,Wunderground v.1.15,2014-01-17 06:25:00,
2014-01-17 01:30:00,35.0,20.9,30.01,South,182,0.0,0.0,56,0.00,,,0.00,Wunderground v.1.15,2014-01-17 06:30:00,
2014-01-17 01:39:00,34.6,20.9,30.00,South,182,0.0,2.0,57,0.00,,,0.00,Wunderground v.1.15,2014-01-17 06:39:00,
2014-01-17 01:45:00,34.5,20.8,30.00,South,182,0.0,2.0,57,0.00,,,0.00,Wunderground v.1.15,2014-01-17 06:45:00,
2014-01-17 01:55:00,34.3,20.6,30.00,South,182,0.0,2.0,57,0.00,,,0.00,Wunderground v.1.15,2014-01-17 06:55:00,
2014-01-17 02:05:00,34.4,20.7,30.00,South,173,1.0,1.0,57,0.00,,,0.00,Wunderground v.1.15,2014-01-17 07:05:00,
2014-01-17 02:14:00,34.2,20.9,30.00,South,174,0.0,2.0,58,0.00,,,0.00,Wunderground v.1.15,2014-01-17 07:14:00,
2014-01-17 02:19:00,34.1,20.4,30.00,South,174,0.0,0.0,57,0.00,,,0.00,Wunderground v.1.15,2014-01-17 07:19:00,
2014-01-17 02:29:00,34.0,20.3,30.00,South,174,0.0,1.0,57,0.00,,,0.00,Wunderground v.1.15,2014-01-17 07:29:00,
2014-01-17 02:39:00,33.9,20.7,30.00,South,174,0.0,0.0,58,0.00,,,0.00,Wunderground v.1.15,2014-01-17 07:39:00,
2014-01-17 02:49:00,33.9,20.7,30.00,South,174,0.0,0.0,58,0.00,,,0.00,Wunderground v.1.15,2014-01-17 07:49:00,
2014-01-17 02:59:00,33.9,20.3,30.00,South,174,0.0,2.0,57,0.00,,,0.00,Wunderground v.1.15,2014-01-17 07:59:00,
2014-01-17 03:05:00,33.9,20.3,30.00,South,174,0.0,2.0,57,0.00,,,0.00,Wunderground v.1.15,2014-01-17 08:05:00,
2014-01-17 03:14:00,33.7,20.5,30.00,South,174,0.0,0.0,58,0.00,,,0.00,Wunderground v.1.15,2014-01-17 08:14:00,
2014-01-17 03:20:00,33.6,20.4,30.00,South,174,0.0,1.0,58,0.00,,,0.00,Wunderground v.1.15,2014-01-17 08:20:00,
2014-01-17 03:29:00,33.4,20.6,30.00,South,174,0.0,2.0,59,0.00,,,0.00,Wunderground v.1.15,2014-01-17 08:29:00,
2014-01-17 03:39:00,33.4,20.6,30.00,South,174,1.0,1.0,59,0.00,,,0.00,Wunderground v.1.15,2014-01-17 08:39:00,
2014-01-17 03:50:00,33.5,20.3,30.00,South,174,1.0,1.0,58,0.00,,,0.00,Wunderground v.1.15,2014-01-17 08:50:00,
2014-01-17 04:00:00,33.7,20.5,30.00,South,188,1.0,1.0,58,0.00,,,0.00,Wunderground v.1.15,2014-01-17 09:00:00,
2014-01-17 04:05:00,33.9,20.3,30.00,South,188,1.0,1.0,57,0.00,,,0.00,Wunderground v.1.15,2014-01-17 09:05:00,
2014-01-17 04:14:00,34.2,20.1,30.00,SSW,195,1.0,2.0,56,0.00,,,0.00,Wunderground v.1.15,2014-01-17 09:14:00,
2014-01-17 04:20:00,34.3,20.2,30.00,SSW,195,1.0,1.0,56,0.00,,,0.00,Wunderground v.1.15,2014-01-17 09:20:00,
2014-01-17 04:30:00,34.4,20.3,30.00,SSW,195,1.0,2.0,56,0.00,,,0.00,Wunderground v.1.15,2014-01-17 09:30:00,
2014-01-17 04:40:00,34.4,19.9,30.00,SSW,196,1.0,1.0,55,0.00,,,0.00,Wunderground v.1.15,2014-01-17 09:40:00,
2014-01-17 04:50:00,34.4,20.3,30.00,SSW,196,0.0,0.0,56,0.00,,,0.00,Wunderground v.1.15,2014-01-17 09:50:00,
2014-01-17 05:00:00,34.3,19.8,29.99,SSW,196,0.0,0.0,55,0.00,,,0.00,Wunderground v.1.15,2014-01-17 10:00:00,
2014-01-17 05:05:00,34.3,19.8,29.99,SSW,196,0.0,0.0,55,0.00,,,0.00,Wunderground v.1.15,2014-01-17 10:05:00,
2014-01-17 05:15:00,34.2,19.7,29.99,SSW,196,0.0,0.0,55,0.00,,,0.00,Wunderground v.1.15,2014-01-17 10:15:00,
2014-01-17 05:25:00,34.0,19.5,29.98,SSW,196,0.0,0.0,55,0.00,,,0.00,Wunderground v.1.15,2014-01-17 10:25:00,
2014-01-17 05:35:00,33.4,19.8,29.97,SSW,196,0.0,0.0,57,0.00,,,0.00,Wunderground v.1.15,2014-01-17 10:35:00,
2014-01-17 05:40:00,33.2,19.6,29.97,SSW,196,0.0,0.0,57,0.00,,,0.00,Wunderground v.1.15,2014-01-17 10:40:00,
2014-01-17 05:49:00,32.8,19.6,29.97,SSW,196,0.0,0.0,58,0.00,,,0.00,Wunderground v.1.15,2014-01-17 10:49:00,
2014-01-17 05:55:00,32.6,19.8,29.97,SSW,196,0.0,0.0,59,0.00,,,0.00,Wunderground v.1.15,2014-01-17 10:55:00,
2014-01-17 06:05:00,32.4,19.7,29.98,SSW,196,0.0,0.0,59,0.00,,,0.00,Wunderground v.1.15,2014-01-17 11:05:00,
2014-01-17 06:14:00,32.4,20.4,29.99,SSW,196,0.0,0.0,61,0.00,,,0.00,Wunderground v.1.15,2014-01-17 11:14:00,
2014-01-17 06:19:00,32.3,20.0,29.99,SSW,196,0.0,0.0,60,0.00,,,0.00,Wunderground v.1.15,2014-01-17 11:19:00,
2014-01-17 06:25:00,32.3,20.0,29.99,SSW,196,0.0,0.0,60,0.00,,,0.00,Wunderground v.1.15,2014-01-17 11:25:00,
2014-01-17 06:35:00,32.4,20.0,29.99,SSW,196,0.0,0.0,60,0.00,,,0.00,Wunderground v.1.15,2014-01-17 11:35:00,
2014-01-17 06:44:00,32.6,19.8,29.99,SSW,196,0.0,0.0,59,0.00,,,0.00,Wunderground v.1.15,2014-01-17 11:44:00,
2014-01-17 06:49:00,32.7,19.9,29.99,SSW,196,0.0,0.0,59,0.00,,,0.00,Wunderground v.1.15,2014-01-17 11:49:00,
2014-01-17 06:59:00,32.8,20.8,29.99,SSW,196,1.0,1.0,61,0.00,,,0.00,Wunderground v.1.15,2014-01-17 11:59:00,
2014-01-17 07:05:00,32.8,20.8,29.99,SSW,196,0.0,1.0,61,0.00,,,0.00,Wunderground v.1.15,2014-01-17 12:05:00,
2014-01-17 07:14:00,33.1,20.7,29.99,SSW,196,0.0,0.0,60,0.00,,,0.00,Wunderground v.1.15,2014-01-17 12:14:00,
2014-01-17 07:19:00,33.3,20.9,30.00,SSW,196,0.0,0.0,60,0.00,,,0.00,Wunderground v.1.15,2014-01-17 12:19:00,
2014-01-17 07:29:00,33.5,20.7,30.00,SSW,196,0.0,0.0,59,0.00,,,0.00,Wunderground v.1.15,2014-01-17 12:29:00,
2014-01-17 07:39:00,33.6,20.8,30.00,SSW,196,0.0,0.0,59,0.00,,,0.00,Wunderground v.1.15,2014-01-17 12:39:00,
2014-01-17 07:49:00,33.6,21.2,30.00,SSW,196,0.0,0.0,60,0.00,,,0.00,Wunderground v.1.15,2014-01-17 12:49:00,
2014-01-17 07:59:00,33.8,22.5,30.00,SSW,196,0.0,0.0,63,0.00,,,0.00,Wunderground v.1.15,2014-01-17 12:59:00,
2014-01-17 08:05:00,33.9,21.1,30.00,SSW,196,0.0,0.0,59,0.00,,,0.00,Wunderground v.1.15,2014-01-17 13:05:00,
2014-01-17 08:14:00,34.3,21.0,30.00,SSW,196,0.0,0.0,58,0.00,,,0.00,Wunderground v.1.15,2014-01-17 13:14:00,
2014-01-17 08:20:00,34.5,21.2,30.00,SSW,196,0.0,0.0,58,0.00,,,0.00,Wunderground v.1.15,2014-01-17 13:20:00,
2014-01-17 08:30:00,35.0,21.7,30.00,SSW,196,0.0,0.0,58,0.00,,,0.00,Wunderground v.1.15,2014-01-17 13:30:00,
2014-01-17 08:39:00,35.4,21.7,30.00,SSW,196,1.0,1.0,57,0.00,,,0.00,Wunderground v.1.15,2014-01-17 13:39:00,
2014-01-17 08:49:00,35.9,22.5,30.00,South,184,1.0,1.0,58,0.00,,,0.00,Wunderground v.1.15,2014-01-17 13:49:00,
2014-01-17 09:00:00,36.5,22.7,30.00,SSW,209,1.0,1.0,57,0.00,,,0.00,Wunderground v.1.15,2014-01-17 14:00:00,
2014-01-17 09:05:00,36.8,22.6,30.01,WSW,245,1.0,2.0,56,0.00,,,0.00,Wunderground v.1.15,2014-01-17 14:05:00,
2014-01-17 09:15:00,37.5,22.8,30.01,WSW,254,2.0,5.0,55,0.00,,,0.00,Wunderground v.1.15,2014-01-17 14:15:00,
2014-01-17 09:20:00,37.9,22.7,30.01,SW,228,2.0,3.0,54,0.00,,,0.00,Wunderground v.1.15,2014-01-17 14:20:00,
2014-01-17 09:30:00,38.1,22.5,30.01,SW,229,3.0,3.0,53,0.00,,,0.00,Wunderground v.1.15,2014-01-17 14:30:00,
2014-01-17 09:40:00,38.5,23.3,30.01,WSW,257,3.0,3.0,54,0.00,,,0.00,Wunderground v.1.15,2014-01-17 14:40:00,
2014-01-17 09:49:00,38.8,23.6,30.01,WSW,258,3.0,3.0,54,0.00,,,0.00,Wunderground v.1.15,2014-01-17 14:49:00,
2014-01-17 09:55:00,39.2,23.9,30.01,SW,232,2.0,3.0,54,0.00,,,0.00,Wunderground v.1.15,2014-01-17 14:55:00,
2014-01-17 10:05:00,39.7,24.0,30.01,West,268,3.0,5.0,53,0.00,,,0.00,Wunderground v.1.15,2014-01-17 15:05:00,
2014-01-17 10:15:00,40.1,24.3,30.01,West,277,3.0,4.0,53,0.00,,,0.00,Wunderground v.1.15,2014-01-17 15:15:00,
2014-01-17 10:25:00,40.7,24.9,30.02,WSW,252,3.0,4.0,53,0.00,,,0.00,Wunderground v.1.15,2014-01-17 15:25:00,
2014-01-17 10:34:00,41.6,24.8,30.01,WSW,258,2.0,4.0,51,0.00,,,0.00,Wunderground v.1.15,2014-01-17 15:34:00,
2014-01-17 10:39:00,41.9,25.1,30.01,WSW,253,2.0,2.0,51,0.00,,,0.00,Wunderground v.1.15,2014-01-17 15:39:00,
2014-01-17 10:49:00,42.3,25.4,30.01,SSW,209,3.0,3.0,51,0.00,,,0.00,Wunderground v.1.15,2014-01-17 15:49:00,
2014-01-17 10:59:00,43.2,26.3,30.00,SW,236,2.0,2.0,51,0.00,,,0.00,Wunderground v.1.15,2014-01-17 15:59:00,
2014-01-17 11:05:00,43.5,26.1,30.00,WSW,246,2.0,3.0,50,0.00,,,0.00,Wunderground v.1.15,2014-01-17 16:05:00,
2014-01-17 11:14:00,43.9,25.5,29.99,WSW,258,3.0,4.0,48,0.00,,,0.00,Wunderground v.1.15,2014-01-17 16:14:00,
2014-01-17 11:19:00,44.1,27.1,29.99,West,261,3.0,3.0,51,0.00,,,0.00,Wunderground v.1.15,2014-01-17 16:19:00,
2014-01-17 11:29:00,44.7,26.2,29.98,WSW,241,3.0,3.0,48,0.00,,,0.00,Wunderground v.1.15,2014-01-17 16:29:00,
2014-01-17 11:39:00,45.6,28.0,29.97,SW,221,2.0,2.0,50,0.00,,,0.00,Wunderground v.1.15,2014-01-17 16:39:00,
2014-01-17 11:49:00,46.5,27.8,29.97,West,263,2.0,4.0,48,0.00,,,0.00,Wunderground v.1.15,2014-01-17 16:49:00,
2014-01-17 11:59:00,46.6,27.9,29.96,West,263,3.0,3.0,48,0.00,,,0.00,Wunderground v.1.15,2014-01-17 16:59:00,
2014-01-17 12:05:00,47.1,28.9,29.96,WSW,251,3.0,4.0,49,0.00,,,0.00,Wunderground v.1.15,2014-01-17 17:05:00,
2014-01-17 12:14:00,47.6,28.9,29.95,WSW,247,2.0,4.0,48,0.00,,,0.00,Wunderground v.1.15,2014-01-17 17:14:00,
2014-01-17 12:19:00,47.7,28.9,29.95,WSW,252,3.0,7.0,48,0.00,,,0.00,Wunderground v.1.15,2014-01-17 17:19:00,
2014-01-17 12:29:00,47.7,30.0,29.94,WSW,256,4.0,4.0,50,0.00,,,0.00,Wunderground v.1.15,2014-01-17 17:29:00,
2014-01-17 12:40:00,48.3,30.0,29.93,South,180,2.0,3.0,49,0.00,,,0.00,Wunderground v.1.15,2014-01-17 17:40:00,
2014-01-17 12:50:00,49.2,30.8,29.92,SW,214,1.0,3.0,49,0.00,,,0.00,Wunderground v.1.15,2014-01-17 17:50:00,
2014-01-17 12:59:00,49.9,31.0,29.91,WSW,246,1.0,1.0,48,0.00,,,0.00,Wunderground v.1.15,2014-01-17 17:59:00,
2014-01-17 13:05:00,50.1,31.2,29.91,SSW,196,1.0,1.0,48,0.00,,,0.00,Wunderground v.1.15,2014-01-17 18:05:00,
2014-01-17 13:14:00,50.3,31.3,29.90,West,263,3.0,5.0,48,0.00,,,0.00,Wunderground v.1.15,2014-01-17 18:14:00,
2014-01-17 13:20:00,50.3,31.3,29.90,South,189,3.0,3.0,48,0.00,,,0.00,Wunderground v.1.15,2014-01-17 18:20:00,
2014-01-17 13:29:00,50.8,31.3,29.90,SW,219,3.0,3.0,47,0.00,,,0.00,Wunderground v.1.15,2014-01-17 18:29:00,
2014-01-17 13:35:00,50.8,32.3,29.89,SSW,192,2.0,3.0,49,0.00,,,0.00,Wunderground v.1.15,2014-01-17 18:35:00,
2014-01-17 13:44:00,50.9,31.9,29.89,SW,219,3.0,3.0,48,0.00,,,0.00,Wunderground v.1.15,2014-01-17 18:44:00,
2014-01-17 14:20:00,51.7,31.6,29.88,SSW,213,2.0,4.0,46,0.00,,,0.00,Wunderground v.1.15,2014-01-17 19:20:00,
2014-01-17 14:30:00,52.1,30.3,29.87,SW,227,3.0,3.0,43,0.00,,,0.00,Wunderground v.1.15,2014-01-17 19:30:00,
2014-01-17 14:40:00,52.2,29.8,29.88,SSW,211,4.0,4.0,42,0.00,,,0.00,Wunderground v.1.15,2014-01-17 19:40:00,
2014-01-17 14:50:00,51.9,28.9,29.87,SSW,206,4.0,4.0,41,0.00,,,0.00,Wunderground v.1.15,2014-01-17 19:50:00,
2014-01-17 15:00:00,52.2,29.2,29.87,SSW,209,3.0,3.0,41,0.00,,,0.00,Wunderground v.1.15,2014-01-17 20:00:00,
2014-01-17 15:05:00,52.8,29.7,29.87,WSW,238,4.0,5.0,41,0.00,,,0.00,Wunderground v.1.15,2014-01-17 20:05:00,
2014-01-17 15:15:00,52.8,29.1,29.86,SSW,193,4.0,5.0,40,0.00,,,0.00,Wunderground v.1.15,2014-01-17 20:15:00,
2014-01-17 15:20:00,52.8,29.7,29.86,South,186,4.0,4.0,41,0.00,,,0.00,Wunderground v.1.15,2014-01-17 20:20:00,
2014-01-17 15:30:00,52.5,28.8,29.86,SW,236,6.0,6.0,40,0.00,,,0.00,Wunderground v.1.15,2014-01-17 20:30:00,
2014-01-17 15:40:00,52.7,29.6,29.86,WNW,294,5.0,5.0,41,0.00,,,0.00,Wunderground v.1.15,2014-01-17 20:40:00,
2014-01-17 15:50:00,52.6,28.3,29.86,WSW,257,5.0,7.0,39,0.00,,,0.00,Wunderground v.1.15,2014-01-17 20:50:00,
2014-01-17 16:00:00,52.7,27.8,29.87,SSW,201,5.0,5.0,38,0.00,,,0.00,Wunderground v.1.15,2014-01-17 21:00:00,
2014-01-17 16:05:00,52.6,28.3,29.87,West,259,4.0,5.0,39,0.00,,,0.00,Wunderground v.1.15,2014-01-17 21:05:00,
2014-01-17 16:15:00,52.9,28.6,29.87,WSW,241,5.0,5.0,39,0.00,,,0.00,Wunderground v.1.15,2014-01-17 21:15:00,
2014-01-17 16:20:00,53.0,28.0,29.87,WSW,253,4.0,5.0,38,0.00,,,0.00,Wunderground v.1.15,2014-01-17 21:20:00,
2014-01-17 16:30:00,52.9,28.0,29.87,WSW,238,5.0,5.0,38,0.00,,,0.00,Wunderground v.1.15,2014-01-17 21:30:00,
2014-01-17 16:40:00,52.4,27.5,29.86,WSW,239,4.0,5.0,38,0.00,,,0.00,Wunderground v.1.15,2014-01-17 21:40:00,
2014-01-17 16:50:00,51.9,27.7,29.87,WSW,246,6.0,6.0,39,0.00,,,0.00,Wunderground v.1.15,2014-01-17 21:50:00,
2014-01-17 17:00:00,51.8,28.2,29.86,WSW,250,4.0,5.0,40,0.00,,,0.00,Wunderground v.1.15,2014-01-17 22:00:00,
2014-01-17 17:05:00,51.7,28.1,29.86,WSW,250,3.0,5.0,40,0.00,,,0.00,Wunderground v.1.15,2014-01-17 22:05:00,
2014-01-17 17:15:00,51.6,28.6,29.86,WSW,257,2.0,6.0,41,0.00,,,0.00,Wunderground v.1.15,2014-01-17 22:15:00,
2014-01-17 17:20:00,51.5,28.6,29.87,West,272,3.0,3.0,41,0.00,,,0.00,Wunderground v.1.15,2014-01-17 22:20:00,
2014-01-17 17:30:00,51.2,29.4,29.87,WSW,255,2.0,2.0,43,0.00,,,0.00,Wunderground v.1.15,2014-01-17 22:30:00,
2014-01-17 17:40:00,50.9,29.2,29.87,West,267,1.0,1.0,43,0.00,,,0.00,Wunderground v.1.15,2014-01-17 22:40:00,
2014-01-17 17:50:00,50.5,28.8,29.87,West,267,0.0,0.0,43,0.00,,,0.00,Wunderground v.1.15,2014-01-17 22:50:00,
2014-01-17 18:00:00,50.2,29.7,29.88,West,267,0.0,0.0,45,0.00,,,0.00,Wunderground v.1.15,2014-01-17 23:00:00,
2014-01-17 18:05:00,50.0,29.5,29.88,West,267,0.0,0.0,45,0.00,,,0.00,Wunderground v.1.15,2014-01-17 23:05:00,
2014-01-17 18:15:00,49.8,29.8,29.88,West,267,0.0,0.0,46,0.00,,,0.00,Wunderground v.1.15,2014-01-17 23:15:00,
2014-01-17 18:20:00,49.6,30.2,29.88,West,267,0.0,0.0,47,0.00,,,0.00,Wunderground v.1.15,2014-01-17 23:20:00,
2014-01-17 18:30:00,49.2,30.3,29.88,West,266,0.0,0.0,48,0.00,,,0.00,Wunderground v.1.15,2014-01-17 23:30:00,
2014-01-17 18:40:00,48.7,30.4,29.88,West,267,0.0,0.0,49,0.00,,,0.00,Wunderground v.1.15,2014-01-17 23:40:00,
2014-01-17 18:50:00,48.1,30.8,29.88,West,267,0.0,0.0,51,0.00,,,0.00,Wunderground v.1.15,2014-01-17 23:50:00,
2014-01-17 19:00:00,47.6,30.8,29.88,West,267,0.0,0.0,52,0.00,,,0.00,Wunderground v.1.15,2014-01-18 00:00:00,
2014-01-17 19:05:00,47.3,31.0,29.88,West,266,0.0,0.0,53,0.00,,,0.00,Wunderground v.1.15,2014-01-18 00:05:00,
2014-01-17 19:15:00,47.1,30.8,29.88,West,266,0.0,0.0,53,0.00,,,0.00,Wunderground v.1.15,2014-01-18 00:15:00,
2014-01-17 19:20:00,47.2,30.9,29.88,West,266,0.0,0.0,53,0.00,,,0.00,Wunderground v.1.15,2014-01-18 00:20:00,
2014-01-17 19:30:00,47.3,31.0,29.88,West,266,0.0,0.0,53,0.00,,,0.00,Wunderground v.1.15,2014-01-18 00:30:00,
2014-01-17 19:40:00,47.1,30.8,29.88,West,266,0.0,0.0,53,0.00,,,0.00,Wunderground v.1.15,2014-01-18 00:40:00,
2014-01-17 19:50:00,47.0,31.2,29.88,West,266,0.0,0.0,54,0.00,,,0.00,Wunderground v.1.15,2014-01-18 00:50:00,
2014-01-17 20:00:00,47.0,31.2,29.88,West,267,0.0,0.0,54,0.00,,,0.00,Wunderground v.1.15,2014-01-18 01:00:00,
2014-01-17 20:05:00,46.9,31.1,29.88,West,267,0.0,0.0,54,0.00,,,0.00,Wunderground v.1.15,2014-01-18 01:05:00,
2014-01-17 20:15:00,46.9,31.1,29.88,WSW,258,0.0,0.0,54,0.00,,,0.00,Wunderground v.1.15,2014-01-18 01:15:00,
2014-01-17 20:20:00,46.8,31.0,29.87,WSW,257,0.0,0.0,54,0.00,,,0.00,Wunderground v.1.15,2014-01-18 01:20:00,
2014-01-17 20:30:00,46.9,31.1,29.88,WSW,257,0.0,0.0,54,0.00,,,0.00,Wunderground v.1.15,2014-01-18 01:30:00,
2014-01-17 20:40:00,46.9,30.6,29.90,West,261,2.0,3.0,53,0.00,,,0.00,Wunderground v.1.15,2014-01-18 01:40:00,
2014-01-17 20:50:00,47.0,28.8,29.90,West,267,3.0,3.0,49,0.00,,,0.00,Wunderground v.1.15,2014-01-18 01:50:00,
2014-01-17 21:00:00,46.9,25.5,29.89,WSW,257,4.0,4.0,43,0.00,,,0.00,Wunderground v.1.15,2014-01-18 02:00:00,
2014-01-17 21:05:00,46.7,24.8,29.89,West,272,4.0,4.0,42,0.00,,,0.00,Wunderground v.1.15,2014-01-18 02:05:00,
2014-01-17 21:15:00,46.4,22.8,29.90,WSW,248,4.0,6.0,39,0.00,,,0.00,Wunderground v.1.15,2014-01-18 02:15:00,
2014-01-17 21:20:00,46.3,22.7,29.90,West,263,3.0,5.0,39,0.00,,,0.00,Wunderground v.1.15,2014-01-18 02:20:00,
2014-01-17 21:30:00,45.9,21.7,29.90,WSW,251,3.0,5.0,38,0.00,,,0.00,Wunderground v.1.15,2014-01-18 02:30:00,
2014-01-17 21:40:00,45.5,21.3,29.90,West,269,4.0,4.0,38,0.00,,,0.00,Wunderground v.1.15,2014-01-18 02:40:00,
2014-01-17 21:50:00,45.1,21.0,29.90,West,279,3.0,5.0,38,0.00,,,0.00,Wunderground v.1.15,2014-01-18 02:50:00,
2014-01-17 22:00:00,44.9,20.2,29.91,West,273,4.0,8.0,37,0.00,,,0.00,Wunderground v.1.15,2014-01-18 03:00:00,
2014-01-17 22:05:00,44.7,19.3,29.91,West,278,5.0,8.0,36,0.00,,,0.00,Wunderground v.1.15,2014-01-18 03:05:00,
2014-01-17 22:15:00,44.5,18.5,29.91,West,265,4.0,4.0,35,0.00,,,0.00,Wunderground v.1.15,2014-01-18 03:15:00,
2014-01-17 22:20:00,44.5,17.8,29.91,West,281,5.0,5.0,34,0.00,,,0.00,Wunderground v.1.15,2014-01-18 03:20:00,
2014-01-17 22:30:00,44.2,18.2,29.91,West,270,4.0,4.0,35,0.00,,,0.00,Wunderground v.1.15,2014-01-18 03:30:00,
2014-01-17 22:35:00,44.0,18.1,29.92,WSW,251,3.0,4.0,35,0.00,,,0.00,Wunderground v.1.15,2014-01-18 03:35:00,
2014-01-17 22:40:00,43.9,18.6,29.92,West,272,3.0,3.0,36,0.00,,,0.00,Wunderground v.1.15,2014-01-18 03:40:00,
2014-01-17 22:50:00,43.6,19.0,29.92,West,264,4.0,4.0,37,0.00,,,0.00,Wunderground v.1.15,2014-01-18 03:50:00,
2014-01-17 23:00:00,43.2,18.6,29.92,West,276,3.0,4.0,37,0.00,,,0.00,Wunderground v.1.15,2014-01-18 04:00:00,
2014-01-17 23:05:00,43.1,19.2,29.92,West,260,4.0,4.0,38,0.00,,,0.00,Wunderground v.1.15,2014-01-18 04:05:00,
2014-01-17 23:15:00,42.8,18.9,29.92,West,277,4.0,4.0,38,0.00,,,0.00,Wunderground v.1.15,2014-01-18 04:15:00,
2014-01-17 23:20:00,42.7,18.8,29.92,West,277,3.0,3.0,38,0.00,,,0.00,Wunderground v.1.15,2014-01-18 04:20:00,
2014-01-17 23:30:00,42.2,19.6,29.92,West,275,2.0,2.0,40,0.00,,,0.00,Wunderground v.1.15,2014-01-18 04:30:00,
2014-01-17 23:35:00,42.1,20.1,29.91,West,275,3.0,3.0,41,0.00,,,0.00,Wunderground v.1.15,2014-01-18 04:35:00,
2014-01-17 23:45:00,41.7,21.4,29.92,WNW,296,3.0,3.0,44,0.00,,,0.00,Wunderground v.1.15,2014-01-18 04:45:00,
2014-01-17 23:55:00,41.3,21.5,29.92,West,276,3.0,3.0,45,0.00,,,0.00,Wunderground v.1.15,2014-01-18 04:55:00,